Weather reports worldwide

Advertisment
Hupsel aws, Netherlands (6283): temperature & dewpoint: 22.01.2020 09:00:00 - 28.01.2020 09:00:00 (CET)Hupsel aws, Netherlands (6283): temperature 5cm: 22.01.2020 09:00:00 - 28.01.2020 09:00:00 (CET)Hupsel aws, Netherlands (6283): wind speed & gusts: 22.01.2020 09:00:00 - 28.01.2020 09:00:00 (CET)Hupsel aws, Netherlands (6283): wind direction: 22.01.2020 09:00:00 - 28.01.2020 09:00:00 (CET)Hupsel aws, Netherlands (6283): precipitation: 22.01.2020 09:00:00 - 28.01.2020 09:00:00 (CET)
Date & Time tt [°C] td [°C] tt 5cm [°C] ff [km/h] ff [kn] fx [km/h] fx [kn] dd rr [mm]
28.01.2020 09:00:00 5,5 3,9 5,1 18 10 43 23 SSW 0,2
28.01.2020 08:00:00 5,9 4,5 5,3 18 10 32 18 S 0,0
28.01.2020 07:00:00 5,3 4,7 5,0 18 10 29 16 S 0,0
28.01.2020 06:00:00 5,6 4,8 5,0 18 10 29 16 SSW 0,0
28.01.2020 05:00:00 5,4 4,1 4,8 14 8 43 23 SW 0,1
28.01.2020 04:00:00 7,1 5,4 6,8 18 10 40 21 SW 0,0
28.01.2020 03:00:00 7,5 5,1 7,1 18 10 50 27 SW 0,0
28.01.2020 02:00:00 7,7 5,8 7,4 22 12 43 23 SW 0,0
28.01.2020 01:00:00 7,4 6,3 7,0 25 14 43 23 S 0,0
28.01.2020 00:00:00 7,1 6,4 6,8 25 14 40 21 S 1,6
27.01.2020 23:00:00 7,0 6,4 6,6 14 8 25 14 SSE 0,7
27.01.2020 22:00:00 6,6 5,9 6,0 14 8 22 12 SSE 0,5
27.01.2020 21:00:00 7,1 5,9 6,6 18 10 29 16 S 0,5
27.01.2020 20:00:00 7,0 6,2 6,7 14 8 22 12 S 0,0
27.01.2020 19:00:00 6,8 6,1 6,1 14 8 22 12 S 0,0
27.01.2020 18:00:00 7,6 7,2 7,0 11 6 22 12 S 0,0
27.01.2020 17:00:00 7,7 7,3 7,3 11 6 22 12 S 0,0
27.01.2020 16:00:00 8,2 7,4 7,8 14 8 22 12 SSW 0,0
27.01.2020 15:00:00 8,4 8,0 8,3 14 8 22 12 S 0,0
27.01.2020 14:00:00 8,4 8,2 8,6 14 8 25 14 S 0,0
27.01.2020 13:00:00 8,2 8,0 8,2 14 8 32 18 S 0,0
27.01.2020 12:00:00 8,7 7,7 9,0 18 10 32 18 S 0,0
27.01.2020 11:00:00 8,5 7,4 8,4 14 8 32 18 SSW 0,0
27.01.2020 10:00:00 8,1 7,2 7,7 14 8 29 16 S 0,0
27.01.2020 09:00:00 7,5 7,4 7,3 18 10 29 16 S 0,1
27.01.2020 08:00:00 7,2 7,0 6,9 14 8 29 16 S 0,2
27.01.2020 07:00:00 6,9 6,8 6,7 18 10 32 18 S 0,1
27.01.2020 06:00:00 6,6 6,5 6,4 18 10 32 18 S 0,6
27.01.2020 05:00:00 6,6 6,1 6,3 22 12 36 19 S 1,2
27.01.2020 04:00:00 6,8 5,7 6,4 22 12 36 19 S 0,4
27.01.2020 03:00:00 7,2 5,0 6,7 22 12 36 19 S 0,0
27.01.2020 02:00:00 7,1 4,9 6,6 22 12 36 19 S 0,0
27.01.2020 01:00:00 7,0 4,9 6,5 18 10 32 18 S 0,0
27.01.2020 00:00:00 6,9 5,1 6,4 18 10 32 18 S 0,0
26.01.2020 23:00:00 6,5 4,9 5,7 14 8 25 14 S 0,0
26.01.2020 22:00:00 7,3 5,0 6,5 14 8 29 16 S 0,0
26.01.2020 21:00:00 7,3 5,1 6,7 18 10 25 14 S 0,0
26.01.2020 20:00:00 6,6 4,9 5,9 14 8 22 12 S 0,0
26.01.2020 19:00:00 5,6 4,3 4,0 11 6 18 10 SSE 0,0
26.01.2020 18:00:00 6,1 4,5 4,4 11 6 14 8 S 0,0
26.01.2020 17:00:00 6,6 4,8 5,3 11 6 25 14 S 0,0
26.01.2020 16:00:00 7,7 5,3 7,2 14 8 22 12 S 0,0
26.01.2020 15:00:00 7,9 5,4 7,8 11 6 25 14 S 0,0
26.01.2020 14:00:00 7,3 4,9 7,0 14 8 25 14 SSW 0,0
26.01.2020 13:00:00 7,1 5,1 7,1 11 6 22 12 SSW 0,0
26.01.2020 12:00:00 4,3 3,7 4,5 11 6 18 10 S 0,0
26.01.2020 11:00:00 3,0 2,7 3,1 11 6 18 10 S 0,0
26.01.2020 10:00:00 2,2 2,2 2,2 11 6 14 8 S 0,0
26.01.2020 09:00:00 1,6 1,6 1,5 7 4 14 8 SSE 0,0
26.01.2020 08:00:00 1,5 1,4 1,2 7 4 14 8 SSE 0,0
26.01.2020 07:00:00 1,8 1,6 1,8 11 6 18 10 SSE 0,0
26.01.2020 06:00:00 1,7 1,6 1,8 11 6 18 10 SE 0,0
26.01.2020 05:00:00 1,8 1,7 1,9 14 8 22 12 SE 0,0
26.01.2020 04:00:00 1,9 1,8 2,0 11 6 14 8 SSE 0,0
26.01.2020 03:00:00 1,8 1,6 1,8 7 4 14 8 SE 0,0
26.01.2020 02:00:00 1,2 1,0 1,2 4 2 7 4 ESE 0,0
26.01.2020 01:00:00 0,9 0,8 1,1 4 2 7 4 E 0,0
26.01.2020 00:00:00 1,0 0,9 0,8 4 2 11 6 E 0,0
25.01.2020 23:00:00 0,8 0,6 0,8 7 4 11 6 SSE 0,0
25.01.2020 22:00:00 0,7 0,6 0,8 7 4 14 8 S 0,0
25.01.2020 21:00:00 0,9 0,7 0,9 7 4 14 8 S 0,0
25.01.2020 20:00:00 0,7 0,6 0,7 7 4 18 10 SSW 0,0
25.01.2020 19:00:00 0,6 0,4 0,6 7 4 18 10 SW 0,0
25.01.2020 18:00:00 0,6 0,5 0,7 4 2 11 6 SSW 0,0
25.01.2020 17:00:00 0,7 0,5 0,8 7 4 11 6 SSW 0,0
25.01.2020 16:00:00 1,1 0,9 1,2 4 2 14 8 SSW 0,0
25.01.2020 15:00:00 1,1 0,7 1,3 11 6 14 8 SSW 0,0
25.01.2020 14:00:00 1,0 0,5 1,2 11 6 14 8 S 0,0
25.01.2020 13:00:00 1,0 0,2 1,4 7 4 22 12 SSW 0,0
25.01.2020 12:00:00 1,3 0,2 1,8 14 8 22 12 S 0,0
25.01.2020 11:00:00 1,1 0,9 1,4 14 8 22 12 S 0,0
25.01.2020 10:00:00 1,0 0,6 1,1 14 8 18 10 S 0,0
25.01.2020 09:00:00 0,7 0,6 0,7 11 6 22 12 S 0,0
25.01.2020 08:00:00 0,6 0,5 0,7 11 6 18 10 S 0,0
25.01.2020 07:00:00 0,6 0,4 0,6 11 6 18 10 S 0,0
25.01.2020 06:00:00 0,5 0,4 0,5 7 4 14 8 S 0,0
25.01.2020 05:00:00 0,4 0,2 0,5 7 4 11 6 S 0,0
25.01.2020 04:00:00 0,4 0,2 0,4 4 2 11 6 S 0,0
25.01.2020 03:00:00 0,3 0,1 0,4 7 4 14 8 SSW 0,0
25.01.2020 02:00:00 0,3 0,2 0,4 7 4 18 10 SSW 0,0
25.01.2020 01:00:00 0,5 0,2 0,5 11 6 18 10 SSW 0,0
25.01.2020 00:00:00 0,6 0,5 0,7 11 6 22 12 S 0,0
24.01.2020 23:00:00 0,9 0,8 1,0 11 6 18 10 S 0,0
24.01.2020 22:00:00 1,2 1,0 1,2 11 6 18 10 SSW 0,0
24.01.2020 21:00:00 1,2 1,0 1,2 11 6 18 10 SSW 0,0
24.01.2020 20:00:00 1,2 1,0 1,2 7 4 18 10 S 0,0
24.01.2020 19:00:00 1,0 0,9 1,1 11 6 14 8 S 0,0
24.01.2020 18:00:00 0,9 0,7 0,9 7 4 18 10 WSW 0,0
24.01.2020 17:00:00 0,9 0,7 0,9 11 6 22 12 SW 0,0
24.01.2020 16:00:00 1,0 0,9 1,1 7 4 18 10 SSW 0,0
24.01.2020 15:00:00 1,2 1,1 1,5 7 4 18 10 SSW 0,0
24.01.2020 14:00:00 1,2 1,1 1,5 11 6 14 8 SW 0,0
24.01.2020 13:00:00 1,2 0,9 1,6 7 4 14 8 SSW 0,0
24.01.2020 12:00:00 0,9 0,8 1,2 4 2 11 6 SSW 0,0
24.01.2020 11:00:00 0,7 0,5 0,8 7 4 14 8 WSW 0,0
24.01.2020 10:00:00 0,3 0,2 0,5 7 4 18 10 SSW 0,0
24.01.2020 09:00:00 0,6 0,3 0,6 7 4 22 12 SW 0,0
24.01.2020 08:00:00 0,7 0,2 0,8 11 6 18 10 S 0,0
24.01.2020 07:00:00 1,4 1,2 1,4 7 4 22 12 WSW 0,0
24.01.2020 06:00:00 1,3 1,2 1,4 11 6 18 10 SW 0,0
24.01.2020 05:00:00 1,9 1,7 1,9 7 4 14 8 SW 0,0
24.01.2020 04:00:00 1,8 1,6 1,8 4 2 11 6 SSW 0,0
24.01.2020 03:00:00 1,9 0,9 1,8 4 2 14 8 SW 0,0
24.01.2020 02:00:00 2,1 0,9 2,0 4 2 14 8 SSW 0,0
24.01.2020 01:00:00 2,3 1,0 2,1 7 4 11 6 S 0,0
24.01.2020 00:00:00 2,5 0,7 2,0 7 4 11 6 SE 0,0
23.01.2020 23:00:00 2,3 1,5 2,0 4 2 7 4 E 0,0
23.01.2020 22:00:00 2,2 2,1 2,2 0 0 7 4 N 0,0
23.01.2020 21:00:00 2,2 2,1 2,2 4 2 7 4 NE 0,0
23.01.2020 20:00:00 2,1 2,0 2,2 7 4 11 6 NNE 0,0
23.01.2020 19:00:00 2,0 1,9 2,1 7 4 11 6 NNE 0,0
23.01.2020 18:00:00 1,9 1,8 2,0 7 4 7 4 N 0,0
23.01.2020 17:00:00 1,6 1,5 0,6 4 2 7 4 NNE 0,0
23.01.2020 16:00:00 2,7 2,3 3,2 4 2 11 6 E 0,0
23.01.2020 15:00:00 2,5 2,5 3,2 4 2 14 8 ENE 0,0
23.01.2020 14:00:00 2,4 2,3 3,1 7 4 11 6 E 0,0
23.01.2020 13:00:00 2,1 2,1 3,1 7 4 14 8 SSE 0,0
23.01.2020 12:00:00 2,1 1,9 2,8 7 4 11 6 E 0,0
23.01.2020 11:00:00 2,0 1,9 2,6 4 2 11 6 E 0,0
23.01.2020 10:00:00 2,1 1,9 2,4 4 2 7 4 SE 0,0
23.01.2020 09:00:00 2,4 2,2 2,5 4 2 7 4 SE 0,0
23.01.2020 08:00:00 2,4 2,3 2,4 4 2 7 4 SSE 0,0
23.01.2020 07:00:00 2,4 2,3 2,5 7 4 7 4 ESE 0,0
23.01.2020 06:00:00 2,9 2,7 2,9 4 2 7 4 SE 0,0
23.01.2020 05:00:00 2,8 2,7 2,9 4 2 7 4 SSE 0,0
23.01.2020 04:00:00 2,8 2,7 2,9 4 2 7 4 SSE 0,0
23.01.2020 03:00:00 2,8 2,7 2,8 4 2 7 4 S 0,0
23.01.2020 02:00:00 2,9 2,8 3,0 4 2 7 4 S 0,0
23.01.2020 01:00:00 2,9 2,8 3,0 4 2 11 6 SSE 0,0
23.01.2020 00:00:00 3,0 2,9 3,1 7 4 7 4 S 0,0
22.01.2020 23:00:00 3,1 2,9 3,1 4 2 11 6 SW 0,0
22.01.2020 22:00:00 3,1 3,0 2,9 4 2 11 6 S 0,0
22.01.2020 21:00:00 3,3 3,2 3,3 4 2 7 4 S 0,1
22.01.2020 20:00:00 3,4 3,3 3,5 4 2 7 4 ESE 0,2
22.01.2020 19:00:00 3,4 3,3 3,5 4 2 7 4 SSW 0,0
22.01.2020 18:00:00 3,5 3,4 3,6 4 2 11 6 SSW 0,0
22.01.2020 17:00:00 3,4 3,3 3,5 4 2 14 8 SSW 0,0
22.01.2020 16:00:00 3,3 3,2 3,4 7 4 11 6 SW 0,0
22.01.2020 15:00:00 3,2 3,1 3,5 4 2 11 6 SW 0,0
22.01.2020 14:00:00 2,9 2,8 3,3 7 4 14 8 SW 0,0
22.01.2020 13:00:00 2,4 2,2 2,7 7 4 14 8 SW 0,0
22.01.2020 12:00:00 1,9 1,8 2,3 7 4 14 8 SW 0,0
22.01.2020 11:00:00 1,4 1,3 1,7 7 4 14 8 SW 0,1
22.01.2020 10:00:00 0,9 0,8 1,1 7 4 14 8 SW 0,1
22.01.2020 09:00:00 0,5 0,4 0,6 7 4 11 6 SW 0,0

tt = temperature
td = dewpoint
tt 5cm = temperature 5cm
ff = wind speed
fx = gusts
dd = wind direction
rr = precipitation

Next stations